Terminal Aerodrome Forecast
Issued by NWS

Home | Current Version | Previous Version | Text Only | Print | Product List | Glossary On
Versions: 1 2 3 4 5 6 7 8 9 10 11 12 13 14 15 16
000
FTUS42 TJSJ 260200 AAA
TAFJSJ
TAF AMD
TJSJ 260217Z 2602/2624 07012KT P6SM VCSH FEW025 SCT030
      TEMPO 2602/2604 -SHRA SCT020 BKN030
     FM260530 09008KT P6SM VCSH SCT025
     FM261300 05014G21KT P6SM SCT025
     FM262200 07012KT P6SM SCT030=

USA.gov is the U.S. government's official web portal to all federal, state and local government web resources and services.